TimeCDT,TemperatureF,Dew PointF,Humidity,Sea Level PressureIn,VisibilityMPH,Wind Direction,Wind SpeedMPH,Gust SpeedMPH,PrecipitationIn,Events,Conditions,WindDirDegrees,DateUTC
12:15 AM,37.4,32.0,81,30.01,10.0,West,8.1,-,N/A,,Overcast,280,2013-04-25 05:15:00
12:35 AM,37.4,32.0,81,30.02,10.0,WSW,8.1,-,N/A,,Overcast,250,2013-04-25 05:35:00
12:55 AM,35.6,32.0,87,30.02,10.0,West,10.4,-,N/A,,Overcast,260,2013-04-25 05:55:00
1:15 AM,35.6,32.0,87,30.02,10.0,West,8.1,13.8,N/A,,Overcast,280,2013-04-25 06:15:00
1:55 AM,35.6,32.0,87,30.02,10.0,Variable,4.6,11.5,N/A,,Overcast,0,2013-04-25 06:55:00
2:15 AM,35.6,32.0,87,30.02,8.0,West,9.2,15.0,N/A,Rain,Light Rain,280,2013-04-25 07:15:00
2:35 AM,35.6,33.8,93,30.02,10.0,Variable,5.8,-,N/A,,Mostly Cloudy,0,2013-04-25 07:35:00
2:55 AM,35.6,33.8,93,30.02,10.0,West,9.2,-,N/A,,Overcast,260,2013-04-25 07:55:00
3:15 AM,35.6,32.0,87,30.03,10.0,West,8.1,16.1,N/A,,Overcast,280,2013-04-25 08:15:00
3:35 AM,35.6,30.2,81,30.03,10.0,West,9.2,18.4,N/A,,Overcast,280,2013-04-25 08:35:00
3:55 AM,35.6,30.2,81,30.05,10.0,WNW,12.7,20.7,N/A,,Light Drizzle,290,2013-04-25 08:55:00
4:15 AM,33.8,28.4,81,30.06,10.0,WNW,13.8,21.9,N/A,Snow,Light Snow,300,2013-04-25 09:15:00
4:35 AM,33.8,28.4,81,30.06,10.0,WNW,11.5,28.8,N/A,,Overcast,300,2013-04-25 09:35:00
4:55 AM,33.8,28.4,81,30.07,10.0,WNW,9.2,19.6,N/A,Snow,Light Snow,290,2013-04-25 09:55:00
5:15 AM,33.8,28.4,81,30.08,10.0,West,9.2,19.6,N/A,,Overcast,280,2013-04-25 10:15:00
5:35 AM,33.8,28.4,81,30.09,10.0,West,8.1,15.0,N/A,,Overcast,280,2013-04-25 10:35:00
5:55 AM,33.8,28.4,81,30.10,10.0,WNW,8.1,17.3,N/A,,Overcast,290,2013-04-25 10:55:00
6:15 AM,33.8,26.6,75,30.11,10.0,WNW,8.1,-,N/A,,Overcast,300,2013-04-25 11:15:00
6:35 AM,33.8,28.4,81,30.12,10.0,WNW,9.2,18.4,N/A,,Overcast,290,2013-04-25 11:35:00
6:55 AM,33.8,28.4,81,30.12,10.0,Variable,5.8,11.5,N/A,,Overcast,0,2013-04-25 11:55:00
7:15 AM,33.8,26.6,75,30.14,10.0,WNW,8.1,17.3,N/A,,Overcast,290,2013-04-25 12:15:00
7:35 AM,32.0,26.6,80,30.15,10.0,WNW,9.2,17.3,N/A,,Overcast,300,2013-04-25 12:35:00
7:55 AM,32.0,26.6,80,30.16,10.0,NW,11.5,-,N/A,,Overcast,310,2013-04-25 12:55:00
8:15 AM,33.8,28.4,81,30.17,10.0,WNW,6.9,18.4,N/A,,Overcast,290,2013-04-25 13:15:00
8:35 AM,33.8,26.6,75,30.18,10.0,WNW,11.5,-,N/A,,Overcast,290,2013-04-25 13:35:00
8:55 AM,33.8,28.4,81,30.19,10.0,WNW,12.7,-,N/A,,Overcast,300,2013-04-25 13:55:00
9:15 AM,33.8,26.6,75,30.20,10.0,WNW,10.4,17.3,N/A,,Overcast,290,2013-04-25 14:15:00
9:35 AM,33.8,26.6,75,30.20,10.0,WNW,11.5,-,N/A,,Overcast,300,2013-04-25 14:35:00
9:55 AM,33.8,26.6,75,30.21,10.0,NW,10.4,-,N/A,,Overcast,310,2013-04-25 14:55:00
10:15 AM,33.8,28.4,81,30.22,10.0,WNW,8.1,-,N/A,,Overcast,300,2013-04-25 15:15:00
10:35 AM,35.6,28.4,75,30.22,10.0,Variable,6.9,12.7,N/A,,Overcast,0,2013-04-25 15:35:00
10:55 AM,35.6,28.4,75,30.23,10.0,West,6.9,13.8,N/A,,Overcast,280,2013-04-25 15:55:00
11:15 AM,35.6,28.4,75,30.23,10.0,West,8.1,-,N/A,,Overcast,270,2013-04-25 16:15:00
11:35 AM,37.4,30.2,75,30.23,10.0,Variable,5.8,11.5,N/A,,Overcast,0,2013-04-25 16:35:00
11:55 AM,39.2,28.4,65,30.24,10.0,WNW,11.5,-,N/A,,Overcast,300,2013-04-25 16:55:00
12:15 PM,39.2,30.2,70,30.24,10.0,WNW,8.1,-,N/A,,Overcast,290,2013-04-25 17:15:00
12:35 PM,41.0,30.2,65,30.24,10.0,Variable,6.9,13.8,N/A,,Light Drizzle,0,2013-04-25 17:35:00
12:55 PM,42.8,30.2,61,30.23,10.0,NNW,8.1,-,N/A,,Mostly Cloudy,330,2013-04-25 17:55:00
1:15 PM,42.8,28.4,57,30.23,10.0,WNW,8.1,-,N/A,,Mostly Cloudy,300,2013-04-25 18:15:00
1:35 PM,44.6,28.4,53,30.23,10.0,Variable,4.6,11.5,N/A,,Clear,0,2013-04-25 18:35:00
1:55 PM,46.4,28.4,50,30.22,10.0,WSW,9.2,-,N/A,,Clear,250,2013-04-25 18:55:00
2:15 PM,46.4,23.0,40,30.22,10.0,West,8.1,15.0,N/A,,Clear,280,2013-04-25 19:15:00
2:35 PM,46.4,24.8,43,30.22,10.0,WSW,11.5,17.3,N/A,,Clear,250,2013-04-25 19:35:00
2:55 PM,46.4,26.6,46,30.22,10.0,Variable,6.9,15.0,N/A,,Clear,0,2013-04-25 19:55:00
3:15 PM,48.2,24.8,40,30.21,10.0,West,10.4,-,N/A,,Clear,280,2013-04-25 20:15:00
3:35 PM,48.2,26.6,43,30.21,10.0,West,9.2,-,N/A,,Clear,270,2013-04-25 20:35:00
3:55 PM,48.2,23.0,37,30.20,10.0,Variable,6.9,-,N/A,,Clear,0,2013-04-25 20:55:00
4:15 PM,50.0,23.0,35,30.20,10.0,WSW,9.2,16.1,N/A,,Clear,250,2013-04-25 21:15:00
4:35 PM,50.0,23.0,35,30.20,10.0,Variable,6.9,-,N/A,,Clear,0,2013-04-25 21:35:00
4:55 PM,50.0,19.4,30,30.20,10.0,WNW,8.1,-,N/A,,Clear,290,2013-04-25 21:55:00
5:15 PM,50.0,19.4,30,30.20,10.0,Variable,6.9,13.8,N/A,,Clear,0,2013-04-25 22:15:00
5:35 PM,50.0,17.6,28,30.19,10.0,WSW,8.1,16.1,N/A,,Clear,240,2013-04-25 22:35:00
5:55 PM,51.8,19.4,28,30.19,10.0,Variable,4.6,-,N/A,,Clear,0,2013-04-25 22:55:00
6:15 PM,50.0,19.4,30,30.18,10.0,Calm,Calm,-,N/A,,Clear,0,2013-04-25 23:15:00
6:35 PM,50.0,19.4,30,30.18,10.0,Variable,5.8,-,N/A,,Clear,0,2013-04-25 23:35:00
6:55 PM,50.0,19.4,30,30.18,10.0,SW,5.8,-,N/A,,Clear,220,2013-04-25 23:55:00
7:15 PM,50.0,21.2,32,30.18,10.0,SW,5.8,-,N/A,,Clear,220,2013-04-26 00:15:00
7:35 PM,50.0,21.2,32,30.17,10.0,SSW,3.5,-,N/A,,Clear,200,2013-04-26 00:35:00
7:55 PM,48.2,24.8,40,30.17,10.0,South,3.5,-,N/A,,Partly Cloudy,170,2013-04-26 00:55:00
8:15 PM,46.4,24.8,43,30.17,10.0,SSE,3.5,-,N/A,,Clear,160,2013-04-26 01:15:00
8:35 PM,46.4,26.6,46,30.18,10.0,North,-9999.0,-,N/A,,Clear,0,2013-04-26 01:35:00
8:55 PM,44.6,28.4,53,30.19,10.0,SSE,4.6,-,N/A,,Scattered Clouds,160,2013-04-26 01:55:00
9:15 PM,44.6,28.4,53,30.20,10.0,SSE,6.9,-,N/A,,Scattered Clouds,150,2013-04-26 02:15:00
9:35 PM,44.6,28.4,53,30.20,-9999.0,SSE,6.9,-,N/A,,Scattered Clouds,150,2013-04-26 02:35:00
9:55 PM,44.6,26.6,49,30.20,10.0,SE,6.9,-,N/A,,Partly Cloudy,140,2013-04-26 02:55:00
10:15 PM,44.6,26.6,49,30.20,10.0,SE,6.9,-,N/A,,Partly Cloudy,140,2013-04-26 03:15:00
10:35 PM,42.8,26.6,53,30.19,10.0,SE,9.2,-,N/A,,Partly Cloudy,140,2013-04-26 03:35:00
10:55 PM,42.8,26.6,53,30.18,10.0,SE,9.2,-,N/A,,Partly Cloudy,130,2013-04-26 03:55:00
11:15 PM,42.8,26.6,53,30.18,10.0,SE,10.4,-,N/A,,Clear,140,2013-04-26 04:15:00
11:35 PM,42.8,26.6,53,30.17,10.0,SSE,10.4,-,N/A,,Partly Cloudy,150,2013-04-26 04:35:00
11:55 PM,42.8,24.8,49,30.17,10.0,SSE,11.5,-,N/A,,Scattered Clouds,150,2013-04-26 04:55:00